Fairmount City, Pennsylvania
Current Conditions -  °F | °C
As of 10:00 PM on Wednesday 26 Nov 2014 (Local Time) from KDUJ Reporting Station
Overcast Overcast  
Wind Chill: -1°   Ceiling: 1700
Heat Index: -1°   Visibility: 9mi
Dew Point: -2°   Wind: 0mph
Humidity: 92%   Direction: NA
Pressure: 29.95"   Gusts: NA
Location:  41.01°N, 79.32°W
Report Text: KDUJ 270300Z AUTO 00000KT 9SM BKN017 OVC038 M01/M02 A2995 RMK AO2 T10111022
Loading
Personal Weather Stations






























Interactive Weather Map New forecast layout! Learn more

10-Day Weather Forecast

Advertisements
Track Severe Weather on mobile